sensor_id;sensor_type;location;lat;lon;timestamp;P1;durP1;ratioP1;P2;durP2;ratioP2
11486;SDS011;10510;47.942;9.442;2023-02-01T00:01:22;11.60;;;6.05;;
11486;SDS011;10510;47.942;9.442;2023-02-01T00:03:22;11.30;;;5.80;;
11486;SDS011;10510;47.942;9.442;2023-02-01T00:05:22;14.38;;;7.13;;
11486;SDS011;10510;47.942;9.442;2023-02-01T00:07:23;12.65;;;5.82;;
11486;SDS011;10510;47.942;9.442;2023-02-01T00:09:23;14.95;;;5.25;;
11486;SDS011;10510;47.942;9.442;2023-02-01T00:11:24;13.95;;;5.93;;
11486;SDS011;10510;47.942;9.442;2023-02-01T00:13:24;11.63;;;5.70;;
11486;SDS011;10510;47.942;9.442;2023-02-01T00:15:24;10.88;;;5.22;;
11486;SDS011;10510;47.942;9.442;2023-02-01T00:17:25;12.65;;;5.57;;
11486;SDS011;10510;47.942;9.442;2023-02-01T00:19:25;11.40;;;5.60;;
11486;SDS011;10510;47.942;9.442;2023-02-01T00:21:25;10.88;;;4.75;;
11486;SDS011;10510;47.942;9.442;2023-02-01T00:23:26;8.98;;;5.43;;
11486;SDS011;10510;47.942;9.442;2023-02-01T00:25:26;12.32;;;5.05;;
11486;SDS011;10510;47.942;9.442;2023-02-01T00:27:26;9.88;;;4.82;;
11486;SDS011;10510;47.942;9.442;2023-02-01T00:29:27;12.32;;;5.18;;
11486;SDS011;10510;47.942;9.442;2023-02-01T00:31:27;11.48;;;5.35;;
11486;SDS011;10510;47.942;9.442;2023-02-01T00:33:28;10.43;;;5.13;;
11486;SDS011;10510;47.942;9.442;2023-02-01T00:35:29;11.05;;;5.47;;
11486;SDS011;10510;47.942;9.442;2023-02-01T00:37:29;10.60;;;4.75;;
11486;SDS011;10510;47.942;9.442;2023-02-01T00:39:29;10.07;;;4.95;;
11486;SDS011;10510;47.942;9.442;2023-02-01T00:41:29;11.70;;;5.70;;
11486;SDS011;10510;47.942;9.442;2023-02-01T00:43:30;11.02;;;5.57;;
11486;SDS011;10510;47.942;9.442;2023-02-01T00:45:31;11.35;;;5.05;;
11486;SDS011;10510;47.942;9.442;2023-02-01T00:47:32;11.98;;;5.78;;
11486;SDS011;10510;47.942;9.442;2023-02-01T00:49:32;11.73;;;4.93;;
11486;SDS011;10510;47.942;9.442;2023-02-01T00:51:32;9.52;;;4.90;;
11486;SDS011;10510;47.942;9.442;2023-02-01T00:53:33;7.75;;;4.80;;
11486;SDS011;10510;47.942;9.442;2023-02-01T00:55:33;10.65;;;5.10;;
11486;SDS011;10510;47.942;9.442;2023-02-01T00:57:33;13.60;;;5.35;;
11486;SDS011;10510;47.942;9.442;2023-02-01T00:59:34;12.55;;;4.88;;
11486;SDS011;10510;47.942;9.442;2023-02-01T01:01:34;9.80;;;5.80;;
11486;SDS011;10510;47.942;9.442;2023-02-01T01:03:36;9.48;;;4.47;;
11486;SDS011;10510;47.942;9.442;2023-02-01T01:05:38;8.05;;;4.28;;
11486;SDS011;10510;47.942;9.442;2023-02-01T01:07:38;8.95;;;4.07;;
11486;SDS011;10510;47.942;9.442;2023-02-01T01:09:39;8.20;;;3.88;;
11486;SDS011;10510;47.942;9.442;2023-02-01T01:11:39;10.27;;;4.68;;
11486;SDS011;10510;47.942;9.442;2023-02-01T01:13:40;9.10;;;4.55;;
11486;SDS011;10510;47.942;9.442;2023-02-01T01:15:41;10.60;;;4.72;;
11486;SDS011;10510;47.942;9.442;2023-02-01T01:17:41;8.38;;;4.57;;
11486;SDS011;10510;47.942;9.442;2023-02-01T01:19:42;10.05;;;4.93;;
11486;SDS011;10510;47.942;9.442;2023-02-01T01:21:42;8.73;;;4.32;;
11486;SDS011;10510;47.942;9.442;2023-02-01T01:23:43;9.57;;;4.60;;
11486;SDS011;10510;47.942;9.442;2023-02-01T01:25:45;10.82;;;4.38;;
11486;SDS011;10510;47.942;9.442;2023-02-01T01:27:45;8.45;;;4.10;;
11486;SDS011;10510;47.942;9.442;2023-02-01T01:29:45;11.35;;;4.53;;
11486;SDS011;10510;47.942;9.442;2023-02-01T01:31:45;10.45;;;4.45;;
11486;SDS011;10510;47.942;9.442;2023-02-01T01:33:52;6.97;;;4.57;;
11486;SDS011;10510;47.942;9.442;2023-02-01T01:35:54;8.82;;;3.78;;
11486;SDS011;10510;47.942;9.442;2023-02-01T01:37:54;9.30;;;4.35;;
11486;SDS011;10510;47.942;9.442;2023-02-01T01:39:54;8.40;;;4.50;;
11486;SDS011;10510;47.942;9.442;2023-02-01T01:41:55;9.05;;;4.57;;
11486;SDS011;10510;47.942;9.442;2023-02-01T01:43:57;8.02;;;4.22;;
11486;SDS011;10510;47.942;9.442;2023-02-01T01:45:58;12.07;;;4.40;;
11486;SDS011;10510;47.942;9.442;2023-02-01T01:47:59;8.75;;;4.10;;
11486;SDS011;10510;47.942;9.442;2023-02-01T01:50:04;7.80;;;4.15;;
11486;SDS011;10510;47.942;9.442;2023-02-01T01:52:07;9.38;;;4.13;;
11486;SDS011;10510;47.942;9.442;2023-02-01T01:54:10;7.30;;;4.05;;
11486;SDS011;10510;47.942;9.442;2023-02-01T01:56:17;8.18;;;4.25;;
11486;SDS011;10510;47.942;9.442;2023-02-01T01:58:18;9.90;;;4.60;;
11486;SDS011;10510;47.942;9.442;2023-02-01T02:00:23;8.98;;;4.43;;
11486;SDS011;10510;47.942;9.442;2023-02-01T02:02:24;7.90;;;3.88;;
11486;SDS011;10510;47.942;9.442;2023-02-01T02:04:24;7.95;;;4.25;;
11486;SDS011;10510;47.942;9.442;2023-02-01T02:08:40;8.63;;;4.25;;
11486;SDS011;10510;47.942;9.442;2023-02-01T02:10:40;9.13;;;4.88;;
11486;SDS011;10510;47.942;9.442;2023-02-01T02:12:59;9.00;;;4.10;;
11486;SDS011;10510;47.942;9.442;2023-02-01T02:14:59;11.07;;;4.13;;
11486;SDS011;10510;47.942;9.442;2023-02-01T02:19:32;8.43;;;3.92;;
11486;SDS011;10510;47.942;9.442;2023-02-01T02:21:56;10.57;;;4.07;;
11486;SDS011;10510;47.942;9.442;2023-02-01T02:24:24;10.15;;;4.88;;
11486;SDS011;10510;47.942;9.442;2023-02-01T02:27:00;8.30;;;4.20;;
11486;SDS011;10510;47.942;9.442;2023-02-01T02:44:21;11.55;;;4.68;;
11486;SDS011;10510;47.942;9.442;2023-02-01T02:46:51;14.02;;;4.30;;
11486;SDS011;10510;47.942;9.442;2023-02-01T02:49:15;12.02;;;5.75;;
11486;SDS011;10510;47.942;9.442;2023-02-01T02:51:37;10.80;;;4.72;;
11486;SDS011;10510;47.942;9.442;2023-02-01T02:56:32;8.85;;;4.65;;
11486;SDS011;10510;47.942;9.442;2023-02-01T02:58:53;10.68;;;4.53;;
11486;SDS011;10510;47.942;9.442;2023-02-01T03:01:13;15.48;;;5.60;;
11486;SDS011;10510;47.942;9.442;2023-02-01T03:03:31;9.07;;;4.40;;
11486;SDS011;10510;47.942;9.442;2023-02-01T03:05:55;12.43;;;4.55;;
11486;SDS011;10510;47.942;9.442;2023-02-01T03:10:05;12.65;;;5.53;;
11486;SDS011;10510;47.942;9.442;2023-02-01T03:12:15;13.82;;;5.95;;
11486;SDS011;10510;47.942;9.442;2023-02-01T03:14:35;13.57;;;5.57;;
11486;SDS011;10510;47.942;9.442;2023-02-01T03:16:49;11.35;;;5.20;;
11486;SDS011;10510;47.942;9.442;2023-02-01T03:18:56;19.63;;;7.18;;
11486;SDS011;10510;47.942;9.442;2023-02-01T03:21:02;9.77;;;4.63;;
11486;SDS011;10510;47.942;9.442;2023-02-01T03:23:08;12.27;;;5.15;;
11486;SDS011;10510;47.942;9.442;2023-02-01T03:25:12;8.68;;;4.53;;
11486;SDS011;10510;47.942;9.442;2023-02-01T03:29:37;12.13;;;5.13;;
11486;SDS011;10510;47.942;9.442;2023-02-01T03:31:44;11.20;;;5.07;;
11486;SDS011;10510;47.942;9.442;2023-02-01T03:33:44;14.82;;;5.82;;
11486;SDS011;10510;47.942;9.442;2023-02-01T03:35:52;12.68;;;5.63;;
11486;SDS011;10510;47.942;9.442;2023-02-01T03:38:01;10.13;;;4.90;;
11486;SDS011;10510;47.942;9.442;2023-02-01T03:40:11;9.73;;;4.43;;
11486;SDS011;10510;47.942;9.442;2023-02-01T03:42:59;10.10;;;5.22;;
11486;SDS011;10510;47.942;9.442;2023-02-01T03:44:50;10.52;;;4.40;;
11486;SDS011;10510;47.942;9.442;2023-02-01T03:47:23;9.95;;;4.78;;
11486;SDS011;10510;47.942;9.442;2023-02-01T03:49:31;11.95;;;5.45;;
11486;SDS011;10510;47.942;9.442;2023-02-01T03:53:36;11.98;;;4.78;;
11486;SDS011;10510;47.942;9.442;2023-02-01T03:55:38;9.27;;;4.30;;
11486;SDS011;10510;47.942;9.442;2023-02-01T03:57:41;9.15;;;4.63;;
11486;SDS011;10510;47.942;9.442;2023-02-01T03:59:45;13.23;;;5.53;;
11486;SDS011;10510;47.942;9.442;2023-02-01T04:01:46;9.43;;;4.80;;
11486;SDS011;10510;47.942;9.442;2023-02-01T04:03:46;11.02;;;5.10;;
11486;SDS011;10510;47.942;9.442;2023-02-01T04:05:47;11.80;;;4.63;;
11486;SDS011;10510;47.942;9.442;2023-02-01T04:07:48;9.93;;;4.72;;
11486;SDS011;10510;47.942;9.442;2023-02-01T04:09:48;12.43;;;5.88;;
11486;SDS011;10510;47.942;9.442;2023-02-01T04:11:49;13.63;;;4.90;;
11486;SDS011;10510;47.942;9.442;2023-02-01T04:13:49;11.57;;;5.20;;
11486;SDS011;10510;47.942;9.442;2023-02-01T04:15:49;10.82;;;4.93;;
11486;SDS011;10510;47.942;9.442;2023-02-01T04:17:49;11.25;;;5.60;;
11486;SDS011;10510;47.942;9.442;2023-02-01T04:19:50;9.20;;;4.75;;
11486;SDS011;10510;47.942;9.442;2023-02-01T04:21:50;13.80;;;5.20;;
11486;SDS011;10510;47.942;9.442;2023-02-01T04:23:50;12.27;;;5.32;;
11486;SDS011;10510;47.942;9.442;2023-02-01T04:25:50;12.30;;;5.30;;
11486;SDS011;10510;47.942;9.442;2023-02-01T04:27:51;12.93;;;4.85;;
11486;SDS011;10510;47.942;9.442;2023-02-01T04:29:51;10.93;;;4.93;;
11486;SDS011;10510;47.942;9.442;2023-02-01T04:31:51;8.60;;;4.95;;
11486;SDS011;10510;47.942;9.442;2023-02-01T04:33:52;9.98;;;5.10;;
11486;SDS011;10510;47.942;9.442;2023-02-01T04:35:53;10.38;;;5.72;;
11486;SDS011;10510;47.942;9.442;2023-02-01T04:37:53;9.68;;;5.10;;
11486;SDS011;10510;47.942;9.442;2023-02-01T04:39:54;11.27;;;4.63;;
11486;SDS011;10510;47.942;9.442;2023-02-01T04:41:54;9.57;;;5.22;;
11486;SDS011;10510;47.942;9.442;2023-02-01T04:43:54;11.43;;;4.93;;
11486;SDS011;10510;47.942;9.442;2023-02-01T04:45:55;11.15;;;5.60;;
11486;SDS011;10510;47.942;9.442;2023-02-01T04:47:55;10.98;;;5.07;;
11486;SDS011;10510;47.942;9.442;2023-02-01T04:49:55;8.23;;;4.38;;
11486;SDS011;10510;47.942;9.442;2023-02-01T04:51:56;9.25;;;4.90;;
11486;SDS011;10510;47.942;9.442;2023-02-01T04:53:56;11.05;;;5.35;;
11486;SDS011;10510;47.942;9.442;2023-02-01T04:55:56;12.43;;;6.03;;
11486;SDS011;10510;47.942;9.442;2023-02-01T04:57:57;11.32;;;5.53;;
11486;SDS011;10510;47.942;9.442;2023-02-01T04:59:57;12.48;;;5.93;;
11486;SDS011;10510;47.942;9.442;2023-02-01T05:01:57;11.32;;;5.45;;
11486;SDS011;10510;47.942;9.442;2023-02-01T05:03:58;9.90;;;4.82;;
11486;SDS011;10510;47.942;9.442;2023-02-01T05:05:58;10.48;;;5.57;;
11486;SDS011;10510;47.942;9.442;2023-02-01T05:08:00;14.07;;;7.05;;
11486;SDS011;10510;47.942;9.442;2023-02-01T05:10:00;9.30;;;5.15;;
11486;SDS011;10510;47.942;9.442;2023-02-01T05:12:01;13.15;;;6.13;;
11486;SDS011;10510;47.942;9.442;2023-02-01T05:14:19;10.80;;;5.13;;
11486;SDS011;10510;47.942;9.442;2023-02-01T05:16:20;14.05;;;5.45;;
11486;SDS011;10510;47.942;9.442;2023-02-01T05:18:20;11.70;;;5.93;;
11486;SDS011;10510;47.942;9.442;2023-02-01T05:20:20;15.98;;;5.55;;
11486;SDS011;10510;47.942;9.442;2023-02-01T05:22:20;11.15;;;5.22;;
11486;SDS011;10510;47.942;9.442;2023-02-01T05:24:21;11.85;;;5.43;;
11486;SDS011;10510;47.942;9.442;2023-02-01T05:26:21;13.10;;;7.07;;
11486;SDS011;10510;47.942;9.442;2023-02-01T05:28:21;11.32;;;5.13;;
11486;SDS011;10510;47.942;9.442;2023-02-01T05:30:22;13.90;;;5.43;;
11486;SDS011;10510;47.942;9.442;2023-02-01T05:32:22;10.13;;;5.57;;
11486;SDS011;10510;47.942;9.442;2023-02-01T05:34:22;13.48;;;6.28;;
11486;SDS011;10510;47.942;9.442;2023-02-01T05:36:22;11.07;;;5.95;;
11486;SDS011;10510;47.942;9.442;2023-02-01T05:38:23;11.93;;;6.05;;
11486;SDS011;10510;47.942;9.442;2023-02-01T05:40:23;12.90;;;5.93;;
11486;SDS011;10510;47.942;9.442;2023-02-01T05:42:23;12.10;;;6.25;;
11486;SDS011;10510;47.942;9.442;2023-02-01T05:44:24;9.88;;;5.38;;
11486;SDS011;10510;47.942;9.442;2023-02-01T05:46:24;13.80;;;5.97;;
11486;SDS011;10510;47.942;9.442;2023-02-01T05:48:24;12.68;;;6.32;;
11486;SDS011;10510;47.942;9.442;2023-02-01T05:50:25;10.85;;;5.72;;
11486;SDS011;10510;47.942;9.442;2023-02-01T05:52:25;13.55;;;6.50;;
11486;SDS011;10510;47.942;9.442;2023-02-01T05:54:25;22.23;;;6.65;;
11486;SDS011;10510;47.942;9.442;2023-02-01T05:56:25;15.00;;;6.35;;
11486;SDS011;10510;47.942;9.442;2023-02-01T05:58:26;12.90;;;6.03;;
11486;SDS011;10510;47.942;9.442;2023-02-01T06:00:26;11.05;;;5.40;;
11486;SDS011;10510;47.942;9.442;2023-02-01T06:02:27;11.88;;;5.35;;
11486;SDS011;10510;47.942;9.442;2023-02-01T06:04:27;11.27;;;5.63;;
11486;SDS011;10510;47.942;9.442;2023-02-01T06:06:27;9.15;;;5.38;;
11486;SDS011;10510;47.942;9.442;2023-02-01T06:08:28;10.13;;;5.50;;
11486;SDS011;10510;47.942;9.442;2023-02-01T06:10:28;11.38;;;6.22;;
11486;SDS011;10510;47.942;9.442;2023-02-01T06:12:28;14.30;;;6.38;;
11486;SDS011;10510;47.942;9.442;2023-02-01T06:14:29;11.82;;;5.60;;
11486;SDS011;10510;47.942;9.442;2023-02-01T06:16:29;12.35;;;5.35;;
11486;SDS011;10510;47.942;9.442;2023-02-01T06:18:29;13.05;;;5.55;;
11486;SDS011;10510;47.942;9.442;2023-02-01T06:20:30;16.30;;;7.75;;
11486;SDS011;10510;47.942;9.442;2023-02-01T06:22:30;14.77;;;6.00;;
11486;SDS011;10510;47.942;9.442;2023-02-01T06:24:31;11.88;;;6.35;;
11486;SDS011;10510;47.942;9.442;2023-02-01T06:26:31;10.52;;;5.45;;
11486;SDS011;10510;47.942;9.442;2023-02-01T06:28:32;12.10;;;6.50;;
11486;SDS011;10510;47.942;9.442;2023-02-01T06:30:33;10.70;;;5.32;;
11486;SDS011;10510;47.942;9.442;2023-02-01T06:32:33;12.35;;;6.07;;
11486;SDS011;10510;47.942;9.442;2023-02-01T06:34:34;13.50;;;6.30;;
11486;SDS011;10510;47.942;9.442;2023-02-01T06:36:34;14.52;;;5.95;;
11486;SDS011;10510;47.942;9.442;2023-02-01T06:38:35;14.20;;;6.60;;
11486;SDS011;10510;47.942;9.442;2023-02-01T06:40:36;12.43;;;5.82;;
11486;SDS011;10510;47.942;9.442;2023-02-01T06:42:36;11.90;;;6.22;;
11486;SDS011;10510;47.942;9.442;2023-02-01T06:44:36;15.00;;;5.80;;
11486;SDS011;10510;47.942;9.442;2023-02-01T06:46:37;11.18;;;6.25;;
11486;SDS011;10510;47.942;9.442;2023-02-01T06:48:37;10.13;;;5.35;;
11486;SDS011;10510;47.942;9.442;2023-02-01T06:50:37;12.52;;;5.63;;
11486;SDS011;10510;47.942;9.442;2023-02-01T06:52:37;13.25;;;6.60;;
11486;SDS011;10510;47.942;9.442;2023-02-01T06:54:38;11.88;;;6.03;;
11486;SDS011;10510;47.942;9.442;2023-02-01T06:56:38;11.38;;;5.28;;
11486;SDS011;10510;47.942;9.442;2023-02-01T06:58:38;12.65;;;6.07;;
11486;SDS011;10510;47.942;9.442;2023-02-01T07:00:39;14.00;;;5.90;;
11486;SDS011;10510;47.942;9.442;2023-02-01T07:02:39;11.10;;;5.82;;
11486;SDS011;10510;47.942;9.442;2023-02-01T07:04:39;12.15;;;5.65;;
11486;SDS011;10510;47.942;9.442;2023-02-01T07:06:39;8.55;;;4.80;;
11486;SDS011;10510;47.942;9.442;2023-02-01T07:08:40;14.43;;;6.10;;
11486;SDS011;10510;47.942;9.442;2023-02-01T07:10:40;11.48;;;6.03;;
11486;SDS011;10510;47.942;9.442;2023-02-01T07:12:41;12.00;;;5.82;;
11486;SDS011;10510;47.942;9.442;2023-02-01T07:14:41;12.25;;;5.90;;
11486;SDS011;10510;47.942;9.442;2023-02-01T07:16:41;11.15;;;5.63;;
11486;SDS011;10510;47.942;9.442;2023-02-01T07:18:42;13.93;;;6.35;;
11486;SDS011;10510;47.942;9.442;2023-02-01T07:20:42;10.45;;;5.55;;
11486;SDS011;10510;47.942;9.442;2023-02-01T07:22:43;13.13;;;6.10;;
11486;SDS011;10510;47.942;9.442;2023-02-01T07:24:43;11.18;;;5.35;;
11486;SDS011;10510;47.942;9.442;2023-02-01T07:26:43;14.88;;;6.43;;
11486;SDS011;10510;47.942;9.442;2023-02-01T07:28:43;13.73;;;5.82;;
11486;SDS011;10510;47.942;9.442;2023-02-01T07:30:44;10.77;;;5.60;;
11486;SDS011;10510;47.942;9.442;2023-02-01T07:32:50;12.48;;;5.82;;
11486;SDS011;10510;47.942;9.442;2023-02-01T07:34:50;11.52;;;5.78;;
11486;SDS011;10510;47.942;9.442;2023-02-01T07:36:51;14.95;;;6.53;;
11486;SDS011;10510;47.942;9.442;2023-02-01T07:38:51;11.88;;;6.10;;
11486;SDS011;10510;47.942;9.442;2023-02-01T07:40:55;11.65;;;5.97;;
11486;SDS011;10510;47.942;9.442;2023-02-01T07:42:57;13.32;;;5.78;;
11486;SDS011;10510;47.942;9.442;2023-02-01T07:44:57;10.07;;;5.60;;
11486;SDS011;10510;47.942;9.442;2023-02-01T07:46:58;12.15;;;5.05;;
11486;SDS011;10510;47.942;9.442;2023-02-01T07:48:58;10.07;;;5.70;;
11486;SDS011;10510;47.942;9.442;2023-02-01T07:53:06;9.77;;;4.85;;
11486;SDS011;10510;47.942;9.442;2023-02-01T07:55:06;8.40;;;4.55;;
11486;SDS011;10510;47.942;9.442;2023-02-01T07:57:07;8.85;;;5.25;;
11486;SDS011;10510;47.942;9.442;2023-02-01T07:59:08;11.55;;;5.30;;
11486;SDS011;10510;47.942;9.442;2023-02-01T08:01:15;9.48;;;5.25;;
11486;SDS011;10510;47.942;9.442;2023-02-01T08:03:20;7.80;;;4.10;;
11486;SDS011;10510;47.942;9.442;2023-02-01T08:05:20;14.40;;;5.38;;
11486;SDS011;10510;47.942;9.442;2023-02-01T08:07:20;8.65;;;4.50;;
11486;SDS011;10510;47.942;9.442;2023-02-01T08:09:22;8.23;;;4.43;;
11486;SDS011;10510;47.942;9.442;2023-02-01T08:11:22;14.85;;;5.20;;
11486;SDS011;10510;47.942;9.442;2023-02-01T08:13:24;7.55;;;4.82;;
11486;SDS011;10510;47.942;9.442;2023-02-01T08:15:24;6.53;;;3.47;;
11486;SDS011;10510;47.942;9.442;2023-02-01T08:17:25;10.15;;;4.30;;
11486;SDS011;10510;47.942;9.442;2023-02-01T08:19:26;8.32;;;3.80;;
11486;SDS011;10510;47.942;9.442;2023-02-01T08:21:27;7.60;;;4.60;;
11486;SDS011;10510;47.942;9.442;2023-02-01T08:23:36;8.13;;;4.10;;
11486;SDS011;10510;47.942;9.442;2023-02-01T08:25:37;8.77;;;4.25;;
11486;SDS011;10510;47.942;9.442;2023-02-01T08:27:38;6.60;;;3.55;;
11486;SDS011;10510;47.942;9.442;2023-02-01T08:29:39;10.40;;;4.97;;
11486;SDS011;10510;47.942;9.442;2023-02-01T08:31:39;7.47;;;4.30;;
11486;SDS011;10510;47.942;9.442;2023-02-01T08:33:43;9.20;;;4.40;;
11486;SDS011;10510;47.942;9.442;2023-02-01T08:35:47;9.80;;;4.63;;
11486;SDS011;10510;47.942;9.442;2023-02-01T08:37:49;8.30;;;4.90;;
11486;SDS011;10510;47.942;9.442;2023-02-01T08:39:49;7.72;;;4.43;;
11486;SDS011;10510;47.942;9.442;2023-02-01T08:41:50;8.82;;;4.65;;
11486;SDS011;10510;47.942;9.442;2023-02-01T08:44:09;8.80;;;5.20;;
11486;SDS011;10510;47.942;9.442;2023-02-01T08:46:09;10.13;;;5.30;;
11486;SDS011;10510;47.942;9.442;2023-02-01T08:48:10;14.20;;;7.22;;
11486;SDS011;10510;47.942;9.442;2023-02-01T08:50:11;11.43;;;6.20;;
11486;SDS011;10510;47.942;9.442;2023-02-01T08:52:11;12.93;;;6.55;;
11486;SDS011;10510;47.942;9.442;2023-02-01T08:54:11;12.20;;;5.53;;
11486;SDS011;10510;47.942;9.442;2023-02-01T08:56:12;20.15;;;6.55;;
11486;SDS011;10510;47.942;9.442;2023-02-01T08:58:14;14.07;;;6.65;;
11486;SDS011;10510;47.942;9.442;2023-02-01T09:00:17;11.80;;;5.57;;
11486;SDS011;10510;47.942;9.442;2023-02-01T09:02:17;13.35;;;7.20;;
11486;SDS011;10510;47.942;9.442;2023-02-01T09:04:17;9.73;;;5.78;;
11486;SDS011;10510;47.942;9.442;2023-02-01T09:06:18;12.70;;;6.15;;
11486;SDS011;10510;47.942;9.442;2023-02-01T09:08:18;11.63;;;6.03;;
11486;SDS011;10510;47.942;9.442;2023-02-01T09:10:20;13.02;;;6.97;;
11486;SDS011;10510;47.942;9.442;2023-02-01T09:12:20;10.23;;;5.80;;
11486;SDS011;10510;47.942;9.442;2023-02-01T09:14:20;12.70;;;6.60;;
11486;SDS011;10510;47.942;9.442;2023-02-01T09:16:21;11.18;;;6.25;;
11486;SDS011;10510;47.942;9.442;2023-02-01T09:18:21;10.55;;;5.13;;
11486;SDS011;10510;47.942;9.442;2023-02-01T09:20:21;10.93;;;6.18;;
11486;SDS011;10510;47.942;9.442;2023-02-01T09:22:24;11.98;;;5.65;;
11486;SDS011;10510;47.942;9.442;2023-02-01T09:24:24;14.93;;;6.35;;
11486;SDS011;10510;47.942;9.442;2023-02-01T09:26:24;9.80;;;5.57;;
11486;SDS011;10510;47.942;9.442;2023-02-01T09:28:25;10.43;;;5.20;;
11486;SDS011;10510;47.942;9.442;2023-02-01T09:30:26;10.48;;;5.80;;
11486;SDS011;10510;47.942;9.442;2023-02-01T09:32:26;12.70;;;6.22;;
11486;SDS011;10510;47.942;9.442;2023-02-01T09:34:26;12.23;;;6.03;;
11486;SDS011;10510;47.942;9.442;2023-02-01T09:36:27;10.05;;;5.45;;
11486;SDS011;10510;47.942;9.442;2023-02-01T09:38:27;10.63;;;6.03;;
11486;SDS011;10510;47.942;9.442;2023-02-01T09:40:28;9.63;;;4.55;;
11486;SDS011;10510;47.942;9.442;2023-02-01T09:44:57;10.38;;;5.25;;
11486;SDS011;10510;47.942;9.442;2023-02-01T09:47:17;9.68;;;5.80;;
11486;SDS011;10510;47.942;9.442;2023-02-01T09:49:20;14.85;;;6.00;;
11486;SDS011;10510;47.942;9.442;2023-02-01T09:51:29;9.90;;;5.95;;
11486;SDS011;10510;47.942;9.442;2023-02-01T09:53:37;9.85;;;4.80;;
11486;SDS011;10510;47.942;9.442;2023-02-01T09:55:43;11.10;;;5.53;;
11486;SDS011;10510;47.942;9.442;2023-02-01T09:59:59;11.55;;;5.55;;
11486;SDS011;10510;47.942;9.442;2023-02-01T10:02:05;8.93;;;4.93;;
11486;SDS011;10510;47.942;9.442;2023-02-01T10:04:31;13.35;;;5.57;;
11486;SDS011;10510;47.942;9.442;2023-02-01T10:14:00;11.77;;;4.82;;
11486;SDS011;10510;47.942;9.442;2023-02-01T10:16:12;14.02;;;5.40;;
11486;SDS011;10510;47.942;9.442;2023-02-01T10:25:37;9.45;;;4.57;;
11486;SDS011;10510;47.942;9.442;2023-02-01T10:27:44;9.00;;;5.13;;
11486;SDS011;10510;47.942;9.442;2023-02-01T10:29:46;10.38;;;4.80;;
11486;SDS011;10510;47.942;9.442;2023-02-01T10:31:54;9.32;;;4.65;;
11486;SDS011;10510;47.942;9.442;2023-02-01T10:33:56;9.88;;;4.68;;
11486;SDS011;10510;47.942;9.442;2023-02-01T10:36:03;11.70;;;4.80;;
11486;SDS011;10510;47.942;9.442;2023-02-01T10:38:21;9.43;;;5.10;;
11486;SDS011;10510;47.942;9.442;2023-02-01T10:40:26;10.38;;;5.22;;
11486;SDS011;10510;47.942;9.442;2023-02-01T10:42:27;11.43;;;5.82;;
11486;SDS011;10510;47.942;9.442;2023-02-01T10:44:30;9.18;;;5.13;;
11486;SDS011;10510;47.942;9.442;2023-02-01T10:46:34;12.15;;;5.55;;
11486;SDS011;10510;47.942;9.442;2023-02-01T10:48:34;12.52;;;5.88;;
11486;SDS011;10510;47.942;9.442;2023-02-01T10:50:37;11.10;;;5.18;;
11486;SDS011;10510;47.942;9.442;2023-02-01T10:52:49;14.52;;;4.75;;
11486;SDS011;10510;47.942;9.442;2023-02-01T10:54:54;15.20;;;5.60;;
11486;SDS011;10510;47.942;9.442;2023-02-01T10:56:54;8.50;;;5.32;;
11486;SDS011;10510;47.942;9.442;2023-02-01T10:59:01;10.75;;;4.75;;
11486;SDS011;10510;47.942;9.442;2023-02-01T11:01:06;22.05;;;7.18;;
11486;SDS011;10510;47.942;9.442;2023-02-01T11:03:30;10.80;;;5.28;;
11486;SDS011;10510;47.942;9.442;2023-02-01T11:05:42;11.43;;;4.35;;
11486;SDS011;10510;47.942;9.442;2023-02-01T11:07:54;8.65;;;4.95;;
11486;SDS011;10510;47.942;9.442;2023-02-01T11:09:55;7.60;;;4.20;;
11486;SDS011;10510;47.942;9.442;2023-02-01T11:11:59;9.63;;;4.72;;
11486;SDS011;10510;47.942;9.442;2023-02-01T11:14:00;11.90;;;5.35;;
11486;SDS011;10510;47.942;9.442;2023-02-01T11:16:11;8.32;;;4.40;;
11486;SDS011;10510;47.942;9.442;2023-02-01T11:18:16;9.55;;;4.03;;
11486;SDS011;10510;47.942;9.442;2023-02-01T11:20:20;9.35;;;4.40;;
11486;SDS011;10510;47.942;9.442;2023-02-01T11:22:34;6.72;;;3.88;;
11486;SDS011;10510;47.942;9.442;2023-02-01T11:24:35;6.82;;;3.95;;
11486;SDS011;10510;47.942;9.442;2023-02-01T11:26:39;6.65;;;4.28;;
11486;SDS011;10510;47.942;9.442;2023-02-01T11:28:44;20.25;;;6.35;;
11486;SDS011;10510;47.942;9.442;2023-02-01T11:30:53;16.55;;;6.80;;
11486;SDS011;10510;47.942;9.442;2023-02-01T11:32:55;13.05;;;5.50;;
11486;SDS011;10510;47.942;9.442;2023-02-01T11:35:01;10.70;;;4.60;;
11486;SDS011;10510;47.942;9.442;2023-02-01T11:37:03;7.47;;;3.97;;
11486;SDS011;10510;47.942;9.442;2023-02-01T11:41:13;7.78;;;4.20;;
11486;SDS011;10510;47.942;9.442;2023-02-01T11:45:26;13.07;;;4.90;;
11486;SDS011;10510;47.942;9.442;2023-02-01T11:47:29;10.35;;;5.53;;
11486;SDS011;10510;47.942;9.442;2023-02-01T11:49:31;9.10;;;4.82;;
11486;SDS011;10510;47.942;9.442;2023-02-01T11:51:56;8.93;;;4.18;;
11486;SDS011;10510;47.942;9.442;2023-02-01T11:56:01;11.55;;;4.55;;
11486;SDS011;10510;47.942;9.442;2023-02-01T11:58:16;8.70;;;4.32;;
11486;SDS011;10510;47.942;9.442;2023-02-01T12:06:48;7.55;;;3.85;;
11486;SDS011;10510;47.942;9.442;2023-02-01T12:24:48;7.07;;;4.32;;
11486;SDS011;10510;47.942;9.442;2023-02-01T12:29:24;7.38;;;3.50;;
11486;SDS011;10510;47.942;9.442;2023-02-01T12:34:32;6.78;;;3.47;;
11486;SDS011;10510;47.942;9.442;2023-02-01T12:41:45;8.63;;;3.53;;
11486;SDS011;10510;47.942;9.442;2023-02-01T12:43:53;11.15;;;4.18;;
11486;SDS011;10510;47.942;9.442;2023-02-01T12:45:56;11.05;;;4.50;;
11486;SDS011;10510;47.942;9.442;2023-02-01T12:48:22;7.20;;;3.95;;
11486;SDS011;10510;47.942;9.442;2023-02-01T12:50:35;14.05;;;3.83;;
11486;SDS011;10510;47.942;9.442;2023-02-01T12:52:49;14.32;;;4.25;;
11486;SDS011;10510;47.942;9.442;2023-02-01T12:57:21;7.38;;;3.75;;
11486;SDS011;10510;47.942;9.442;2023-02-01T12:59:39;7.07;;;4.15;;
11486;SDS011;10510;47.942;9.442;2023-02-01T13:01:53;14.93;;;4.80;;
11486;SDS011;10510;47.942;9.442;2023-02-01T13:06:46;13.88;;;4.35;;
11486;SDS011;10510;47.942;9.442;2023-02-01T13:09:19;10.32;;;3.88;;
11486;SDS011;10510;47.942;9.442;2023-02-01T13:11:38;7.88;;;3.75;;
11486;SDS011;10510;47.942;9.442;2023-02-01T13:13:52;7.70;;;3.80;;
11486;SDS011;10510;47.942;9.442;2023-02-01T13:16:08;7.35;;;3.95;;
11486;SDS011;10510;47.942;9.442;2023-02-01T13:18:17;7.07;;;3.45;;
11486;SDS011;10510;47.942;9.442;2023-02-01T13:22:34;12.27;;;4.32;;
11486;SDS011;10510;47.942;9.442;2023-02-01T13:24:44;5.18;;;2.78;;
11486;SDS011;10510;47.942;9.442;2023-02-01T13:26:47;6.45;;;3.20;;
11486;SDS011;10510;47.942;9.442;2023-02-01T13:35:35;13.38;;;3.58;;
11486;SDS011;10510;47.942;9.442;2023-02-01T13:42:14;7.15;;;3.17;;
11486;SDS011;10510;47.942;9.442;2023-02-01T13:44:28;10.10;;;3.67;;
11486;SDS011;10510;47.942;9.442;2023-02-01T13:46:44;14.32;;;3.55;;
11486;SDS011;10510;47.942;9.442;2023-02-01T13:48:52;9.75;;;3.63;;
11486;SDS011;10510;47.942;9.442;2023-02-01T13:50:57;8.15;;;3.60;;
11486;SDS011;10510;47.942;9.442;2023-02-01T13:55:19;9.88;;;4.22;;
11486;SDS011;10510;47.942;9.442;2023-02-01T13:57:38;10.35;;;3.65;;
11486;SDS011;10510;47.942;9.442;2023-02-01T14:01:41;8.18;;;3.28;;
11486;SDS011;10510;47.942;9.442;2023-02-01T14:03:45;8.38;;;3.08;;
11486;SDS011;10510;47.942;9.442;2023-02-01T14:14:49;6.57;;;2.70;;
11486;SDS011;10510;47.942;9.442;2023-02-01T14:18:57;9.95;;;2.78;;
11486;SDS011;10510;47.942;9.442;2023-02-01T14:21:12;12.95;;;2.83;;
11486;SDS011;10510;47.942;9.442;2023-02-01T14:23:17;5.93;;;2.78;;